Hlavní strana
METAR-TAF:

METAR-TAF

Letiště :

Muscle Shoals, Alabama, Spojené státy americké

zeměpisná šířka: 34-44-38N, zeměpisná délka: 087-35-58W, výška: 167 m

Aktuální stav počasí

Zpráva byla vytvořena před 33 minutami, v 08:53 UTC
Severní vítr 3 kt
Teplota 19°C
Vlhkost vzduchu 88%
Tlak 1019 hPa
Viditelnost: 16.1 km
Jasno

METAR: KMSL 300853Z AUTO 35003KT 10SM CLR 19/17 A3008 RMK AO2 SLP180 T01890172 58001

Čas: 04:26 (09:26 UTC)

Předpověď počasí

Zpráva byla vytvořena před 4 hodinami a 6 minutami, v 05:20 UTC
Předpověď platná od 30 v 06 UTC do 31 v 06 UTC
vítr z různých směrů 4 kt
Viditelnost: 10 km
Skoro jasno ve výšce 4000 ft
Od 30 v 1500 UTC
Severní vítr 10 kt
Viditelnost: 10 km
Skoro jasno ve výšce 25000 ft

TAF: KMSL 300520Z 3006/3106 VRB04KT P6SM FEW040 FM301500 35010KT P6SM FEW250

Stav a předpovědi počasí z více než 4 000 letišť (zprávy METAR a TAF).

Červené a žluté tečky na mapě představují dostupné meteorologické stanice.

Když kurzor umístíte na tečku, zobrazí se název stanice.

Pak kliknutím zobrazíte stav a předpověď počasí.

Chcete-li změnit mapu, kliknutím na zelené tlačítko se znaménkem +mapu přiblížíte, kliknutím na zelené tlačítko se znaménkem – mapu oddálíte a kliknutím na zelené šipky přejdete na sousední mapy.


METAR-TAF: